createdAt,value
2023-01-29T00:01:35.576Z,21.63
2023-01-29T00:05:39.924Z,15.63
2023-01-29T00:09:57.589Z,18.73
2023-01-29T00:14:07.528Z,16.93
2023-01-29T00:18:15.349Z,15.90
2023-01-29T00:22:19.256Z,16.13
2023-01-29T00:26:42.467Z,14.67
2023-01-29T00:35:26.761Z,18.30
2023-01-29T00:39:58.335Z,20.00
2023-01-29T00:44:27.109Z,19.43
2023-01-29T00:48:42.713Z,20.50
2023-01-29T00:53:01.235Z,20.67
2023-01-29T01:02:22.619Z,23.23
2023-01-29T01:06:31.446Z,25.83
2023-01-29T01:10:35.357Z,16.90
2023-01-29T01:14:59.078Z,23.13
2023-01-29T01:19:27.924Z,23.50
2023-01-29T01:23:46.452Z,26.80
2023-01-29T01:27:55.089Z,22.90
2023-01-29T01:32:08.094Z,24.03
2023-01-29T01:40:47.857Z,26.03
2023-01-29T01:45:26.187Z,20.07
2023-01-29T01:50:09.575Z,18.13
2023-01-29T01:54:33.072Z,18.53
2023-01-29T01:58:42.623Z,16.73
2023-01-29T02:08:09.675Z,13.87
2023-01-29T02:12:25.236Z,14.33
2023-01-29T02:16:34.071Z,13.70
2023-01-29T02:20:45.965Z,14.43
2023-01-29T02:25:15.878Z,15.23
2023-01-29T02:29:34.268Z,13.97
2023-01-29T02:33:49.003Z,15.97
2023-01-29T02:37:58.737Z,17.10
2023-01-29T02:42:12.733Z,16.73
2023-01-29T02:46:32.341Z,20.40
2023-01-29T02:50:46.577Z,18.57
2023-01-29T02:55:09.697Z,15.13
2023-01-29T02:59:19.296Z,16.03
2023-01-29T11:13:45.324Z,11.33
2023-01-29T11:18:14.243Z,10.80
2023-01-29T11:23:20.091Z,10.13
2023-01-29T11:27:26.618Z,9.13
2023-01-29T11:31:40.014Z,10.93
2023-01-29T11:35:43.433Z,9.03
2023-01-29T11:40:38.011Z,11.07
2023-01-29T11:44:44.733Z,10.70
2023-01-29T11:48:59.374Z,10.97
2023-01-29T11:53:29.011Z,9.73
2023-01-29T11:57:35.188Z,13.63
2023-01-29T12:01:40.941Z,13.00
2023-01-29T12:11:45.865Z,12.00
2023-01-29T12:16:23.222Z,12.03
2023-01-29T12:20:32.799Z,12.63
2023-01-29T12:24:40.009Z,11.57
2023-01-29T12:29:05.394Z,13.10
2023-01-29T12:33:19.271Z,16.27
2023-01-29T12:37:28.873Z,12.93
2023-01-29T12:41:48.437Z,14.00
2023-01-29T12:45:56.752Z,10.47
2023-01-29T12:50:06.914Z,13.07
2023-01-29T12:54:23.424Z,14.63
2023-01-29T12:58:47.248Z,11.17
2023-01-29T13:02:58.485Z,11.33
2023-01-29T13:07:15.813Z,10.17
2023-01-29T13:11:48.262Z,12.90
2023-01-29T13:16:22.439Z,12.53
2023-01-29T13:20:33.529Z,48.53
2023-01-29T13:24:41.229Z,28.27
2023-01-29T13:28:47.067Z,14.23
2023-01-29T13:32:55.625Z,12.20
2023-01-29T13:37:04.497Z,14.20
2023-01-29T13:41:18.149Z,15.13
2023-01-29T13:45:24.154Z,11.80
2023-01-29T13:49:37.195Z,15.17
2023-01-29T13:53:43.548Z,14.20
2023-01-29T13:58:04.968Z,13.83
2023-01-29T14:02:26.552Z,13.43
2023-01-29T14:06:48.167Z,17.40
2023-01-29T14:11:42.677Z,15.57
2023-01-29T14:15:48.807Z,15.70
2023-01-29T14:19:53.796Z,15.53
2023-01-29T14:24:00.164Z,14.40
2023-01-29T14:28:26.951Z,14.67
2023-01-29T14:33:27.193Z,14.23
2023-01-29T14:37:35.334Z,16.20
2023-01-29T14:42:30.915Z,14.47
2023-01-29T14:46:54.568Z,14.10
2023-01-29T14:51:25.317Z,14.67
2023-01-29T14:55:38.487Z,13.53
2023-01-29T14:59:56.447Z,15.53
2023-01-29T15:04:07.169Z,17.10
2023-01-29T15:08:30.290Z,18.50
2023-01-29T15:13:03.309Z,16.33
2023-01-29T15:17:20.763Z,25.10
2023-01-29T15:21:25.476Z,20.97
2023-01-29T15:25:34.134Z,20.20
2023-01-29T15:29:44.533Z,15.97
2023-01-29T15:33:52.291Z,14.97
2023-01-29T15:38:06.029Z,16.53
2023-01-29T15:42:44.713Z,18.33
2023-01-29T15:46:52.406Z,15.60
2023-01-29T15:50:57.361Z,14.67
2023-01-29T15:59:27.651Z,15.33
2023-01-29T16:03:44.464Z,16.00
2023-01-29T16:07:48.058Z,15.13
2023-01-29T16:12:41.961Z,18.97
2023-01-29T16:16:48.656Z,17.60
2023-01-29T16:21:09.078Z,19.63
2023-01-29T16:25:15.796Z,15.67
2023-01-29T16:29:28.216Z,17.07
2023-01-29T16:33:36.503Z,16.43
2023-01-29T16:37:42.228Z,17.77
2023-01-29T16:41:46.002Z,15.13
2023-01-29T16:46:04.320Z,12.57
2023-01-29T16:50:36.162Z,12.87
2023-01-29T16:54:44.029Z,11.80
2023-01-29T16:58:51.548Z,9.13
2023-01-29T17:03:02.239Z,7.47
2023-01-29T17:07:07.026Z,9.67
2023-01-29T17:11:26.352Z,8.07
2023-01-29T17:15:41.390Z,7.33
2023-01-29T17:19:45.951Z,9.07
2023-01-29T17:23:52.706Z,9.13
2023-01-29T17:27:58.353Z,7.57
2023-01-29T17:32:06.414Z,7.57
2023-01-29T17:36:15.247Z,8.00
2023-01-29T17:40:32.422Z,7.10
2023-01-29T17:44:37.527Z,8.70
2023-01-29T17:48:43.527Z,7.23
2023-01-29T17:52:49.976Z,7.70
2023-01-29T17:56:58.795Z,7.90
2023-01-29T18:01:04.296Z,8.93
2023-01-29T18:05:11.911Z,8.30
2023-01-29T18:09:19.896Z,10.30
2023-01-29T18:13:28.319Z,8.87
2023-01-29T18:17:33.731Z,11.23
2023-01-29T18:21:40.431Z,9.00
2023-01-29T18:25:45.858Z,8.87
2023-01-29T18:29:54.264Z,11.67
2023-01-29T18:33:57.759Z,9.00
2023-01-29T18:38:04.239Z,10.27
2023-01-29T18:42:10.157Z,8.70
2023-01-29T18:46:18.207Z,9.83
2023-01-29T18:50:25.980Z,11.03
2023-01-29T18:54:35.363Z,12.50
2023-01-29T18:58:40.686Z,10.07
2023-01-29T19:02:49.675Z,9.70
2023-01-29T19:06:55.404Z,9.70
2023-01-29T19:11:03.258Z,10.17
2023-01-29T19:15:21.488Z,10.17
2023-01-29T19:19:29.926Z,9.67
2023-01-29T19:23:37.238Z,9.17
2023-01-29T19:27:44.226Z,10.37
2023-01-29T19:31:51.378Z,10.93
2023-01-29T19:36:08.204Z,10.97
2023-01-29T19:40:14.969Z,10.10
2023-01-29T19:44:46.582Z,10.93
2023-01-29T19:48:54.713Z,11.50
2023-01-29T19:53:07.776Z,11.03
2023-01-29T19:57:12.352Z,10.50
2023-01-29T20:01:21.618Z,12.53
2023-01-29T20:05:27.265Z,12.07
2023-01-29T20:09:33.396Z,14.07
2023-01-29T20:13:39.722Z,14.40
2023-01-29T20:17:46.295Z,16.83
2023-01-29T20:21:51.285Z,13.47
2023-01-29T20:26:02.431Z,15.13
2023-01-29T20:30:10.350Z,14.40
2023-01-29T20:34:19.212Z,14.90
2023-01-29T20:38:26.223Z,16.00
2023-01-29T20:43:33.287Z,13.13
2023-01-29T20:47:38.404Z,14.57
2023-01-29T20:58:07.179Z,17.63
2023-01-29T21:02:12.350Z,20.87
2023-01-29T21:07:13.037Z,15.90
2023-01-29T21:17:27.893Z,15.87
2023-01-29T21:21:32.425Z,16.77
2023-01-29T21:25:42.804Z,18.53
2023-01-29T21:29:46.905Z,17.67
2023-01-29T21:33:52.991Z,16.73
2023-01-29T21:37:57.038Z,16.23
2023-01-29T21:42:18.754Z,17.10
2023-01-29T21:46:24.040Z,17.43
2023-01-29T21:50:35.801Z,19.57
2023-01-29T21:54:51.954Z,16.13
2023-01-29T21:59:02.223Z,18.17
2023-01-29T22:03:30.044Z,19.57
2023-01-29T22:07:36.653Z,17.73
2023-01-29T22:11:42.361Z,18.73
2023-01-29T22:15:46.472Z,15.60
2023-01-29T22:19:53.775Z,18.77
2023-01-29T22:23:59.763Z,19.97
2023-01-29T22:28:03.842Z,18.40
2023-01-29T22:32:08.370Z,20.63
2023-01-29T22:37:16.289Z,16.53
2023-01-29T22:41:22.524Z,16.97
2023-01-29T22:45:26.881Z,17.33
2023-01-29T22:49:31.924Z,18.37
2023-01-29T22:53:37.669Z,17.60
2023-01-29T22:58:08.948Z,16.83
2023-01-29T23:02:14.393Z,17.43
2023-01-29T23:06:22.087Z,17.83
2023-01-29T23:10:30.586Z,19.27
2023-01-29T23:14:34.795Z,18.07
2023-01-29T23:18:40.832Z,17.00
2023-01-29T23:22:45.778Z,21.10
2023-01-29T23:32:05.017Z,18.23
2023-01-29T23:36:10.886Z,17.47
2023-01-29T23:40:16.497Z,19.00
2023-01-29T23:44:21.742Z,19.90
2023-01-29T23:48:26.843Z,16.53
2023-01-29T23:52:32.424Z,19.77
2023-01-29T23:56:50.804Z,19.33
